This is the latest recevied weather packets stored in our database for station/object IT9FDP-13. If no packets are shown the sender has not sent any weather packets the latest 10 day(s).
| Time | Temp. | Humidity | Pressure | Rain* | Wind** | Luminosity | Snow |
|---|---|---|---|---|---|---|---|
| 1777201217 | 19.44° C | 64% | 1017.9 hPa | 0 mm | - | - | - |
| 1777200617 | 19.44° C | 63% | 1017.8 hPa | 0 mm | - | - | - |
| 1777196421 | 18.89° C | 64% | 1017.8 hPa | 0 mm | - | - | - |
| 1777195223 | 18.89° C | 63% | 1017.6 hPa | 0 mm | - | - | - |
| 1777194027 | 18.89° C | 62% | 1017.7 hPa | 0 mm | - | - | - |
| 1777191018 | 18.89° C | 60% | 1017.6 hPa | 0 mm | - | - | - |
| 1777188624 | 19.44° C | 55% | 1017.3 hPa | 0 mm | - | - | - |
| 1777188019 | 20° C | 56% | 1017.2 hPa | 0 mm | - | - | - |
| 1777187422 | 20° C | 59% | 1017.1 hPa | 0 mm | - | - | - |
| 1777184727 | 19.44° C | 58% | 1017.1 hPa | 0 mm | - | - | - |
| 1777184423 | 18.89° C | 59% | 1017 hPa | 0 mm | - | - | - |
| 1777183222 | 18.33° C | 64% | 1017 hPa | 0 mm | - | - | - |
| 1777181724 | 17.22° C | 67% | 1017.1 hPa | 0 mm | - | - | - |
| 1777181427 | 17.22° C | 67% | 1017.1 hPa | 0 mm | - | - | - |
| 1777181137 | 17.22° C | 67% | 1017.1 hPa | 0 mm | - | - | - |
| 1777179617 | 16.67° C | 68% | 1016.9 hPa | 0 mm | - | - | - |
| 1777177257 | 15° C | 70% | 1016.8 hPa | 0 mm | - | - | - |
| 1777176027 | 15° C | 71% | 1016.7 hPa | 0 mm | - | - | - |
| 1777175426 | 15° C | 72% | 1016.7 hPa | 0 mm | - | - | - |
| 1777175117 | 15° C | 72% | 1016.6 hPa | 0 mm | - | - | - |
| 1777174222 | 15° C | 74% | 1016.7 hPa | 0 mm | - | - | - |
| 1777173926 | 15° C | 74% | 1016.7 hPa | 0 mm | - | - | - |
| 1777173316 | 15.56° C | 74% | 1016.6 hPa | 0 mm | - | - | - |
| 1777172743 | 15.56° C | 74% | 1016.6 hPa | 0 mm | - | - | - |
| 1777172442 | 15.56° C | 74% | 1016.7 hPa | 0 mm | - | - | - |
* Rain latest hour (hover to see other rain measurements)
** Current wind speed in m/s (hover to see current wind gust speed)